sensor_id;sensor_type;location;lat;lon;timestamp;P1;durP1;ratioP1;P2;durP2;ratioP2
65461;SDS011;53236;43.666;18.444;2023-05-07T00:00:03;14.27;;;11.83;;
65461;SDS011;53236;43.666;18.444;2023-05-07T00:02:33;15.00;;;12.63;;
65461;SDS011;53236;43.666;18.444;2023-05-07T00:04:59;13.57;;;11.37;;
65461;SDS011;53236;43.666;18.444;2023-05-07T00:07:24;14.57;;;12.10;;
65461;SDS011;53236;43.666;18.444;2023-05-07T00:09:50;14.67;;;11.87;;
65461;SDS011;53236;43.666;18.444;2023-05-07T00:12:16;12.87;;;10.93;;
65461;SDS011;53236;43.666;18.444;2023-05-07T00:14:42;12.57;;;11.23;;
65461;SDS011;53236;43.666;18.444;2023-05-07T00:17:07;12.80;;;11.50;;
65461;SDS011;53236;43.666;18.444;2023-05-07T00:19:33;15.77;;;13.17;;
65461;SDS011;53236;43.666;18.444;2023-05-07T00:21:59;15.60;;;12.40;;
65461;SDS011;53236;43.666;18.444;2023-05-07T00:24:25;13.27;;;11.53;;
65461;SDS011;53236;43.666;18.444;2023-05-07T00:26:50;10.97;;;9.97;;
65461;SDS011;53236;43.666;18.444;2023-05-07T00:29:17;15.67;;;11.60;;
65461;SDS011;53236;43.666;18.444;2023-05-07T00:31:43;13.73;;;12.10;;
65461;SDS011;53236;43.666;18.444;2023-05-07T00:34:09;12.40;;;11.07;;
65461;SDS011;53236;43.666;18.444;2023-05-07T00:36:35;14.47;;;11.20;;
65461;SDS011;53236;43.666;18.444;2023-05-07T00:39:00;17.30;;;11.77;;
65461;SDS011;53236;43.666;18.444;2023-05-07T00:41:28;13.33;;;11.83;;
65461;SDS011;53236;43.666;18.444;2023-05-07T00:43:55;13.60;;;11.77;;
65461;SDS011;53236;43.666;18.444;2023-05-07T00:46:21;12.80;;;11.47;;
65461;SDS011;53236;43.666;18.444;2023-05-07T00:48:49;15.13;;;12.17;;
65461;SDS011;53236;43.666;18.444;2023-05-07T00:51:16;12.47;;;11.20;;
65461;SDS011;53236;43.666;18.444;2023-05-07T00:53:43;13.50;;;11.53;;
65461;SDS011;53236;43.666;18.444;2023-05-07T00:56:09;15.27;;;12.20;;
65461;SDS011;53236;43.666;18.444;2023-05-07T00:58:36;13.57;;;11.77;;
65461;SDS011;53236;43.666;18.444;2023-05-07T01:01:02;13.23;;;11.83;;
65461;SDS011;53236;43.666;18.444;2023-05-07T01:03:28;13.33;;;10.83;;
65461;SDS011;53236;43.666;18.444;2023-05-07T01:05:54;13.53;;;11.83;;
65461;SDS011;53236;43.666;18.444;2023-05-07T01:08:22;13.13;;;10.10;;
65461;SDS011;53236;43.666;18.444;2023-05-07T01:10:50;12.73;;;11.43;;
65461;SDS011;53236;43.666;18.444;2023-05-07T01:13:17;13.97;;;9.77;;
65461;SDS011;53236;43.666;18.444;2023-05-07T01:15:44;13.83;;;11.63;;
65461;SDS011;53236;43.666;18.444;2023-05-07T01:18:10;14.63;;;12.27;;
65461;SDS011;53236;43.666;18.444;2023-05-07T01:20:36;13.77;;;10.43;;
65461;SDS011;53236;43.666;18.444;2023-05-07T01:23:02;14.67;;;12.23;;
65461;SDS011;53236;43.666;18.444;2023-05-07T01:25:28;13.13;;;10.67;;
65461;SDS011;53236;43.666;18.444;2023-05-07T01:27:55;14.37;;;11.73;;
65461;SDS011;53236;43.666;18.444;2023-05-07T01:30:21;12.97;;;10.23;;
65461;SDS011;53236;43.666;18.444;2023-05-07T01:32:48;15.43;;;11.83;;
65461;SDS011;53236;43.666;18.444;2023-05-07T01:35:22;14.33;;;11.63;;
65461;SDS011;53236;43.666;18.444;2023-05-07T01:37:51;11.83;;;9.67;;
65461;SDS011;53236;43.666;18.444;2023-05-07T01:40:18;14.00;;;11.87;;
65461;SDS011;53236;43.666;18.444;2023-05-07T01:42:44;13.43;;;10.87;;
65461;SDS011;53236;43.666;18.444;2023-05-07T01:45:11;14.37;;;11.47;;
65461;SDS011;53236;43.666;18.444;2023-05-07T01:47:37;13.37;;;10.37;;
65461;SDS011;53236;43.666;18.444;2023-05-07T01:50:06;13.20;;;10.90;;
65461;SDS011;53236;43.666;18.444;2023-05-07T01:52:38;11.60;;;10.37;;
65461;SDS011;53236;43.666;18.444;2023-05-07T01:55:05;14.37;;;10.07;;
65461;SDS011;53236;43.666;18.444;2023-05-07T01:57:31;13.57;;;12.13;;
65461;SDS011;53236;43.666;18.444;2023-05-07T01:59:57;12.57;;;10.23;;
65461;SDS011;53236;43.666;18.444;2023-05-07T02:02:22;13.17;;;10.67;;
65461;SDS011;53236;43.666;18.444;2023-05-07T02:04:48;13.53;;;11.13;;
65461;SDS011;53236;43.666;18.444;2023-05-07T02:07:14;16.23;;;10.33;;
65461;SDS011;53236;43.666;18.444;2023-05-07T02:09:40;12.47;;;11.17;;
65461;SDS011;53236;43.666;18.444;2023-05-07T02:12:06;11.33;;;9.50;;
65461;SDS011;53236;43.666;18.444;2023-05-07T02:14:32;11.87;;;10.67;;
65461;SDS011;53236;43.666;18.444;2023-05-07T02:16:57;13.10;;;10.53;;
65461;SDS011;53236;43.666;18.444;2023-05-07T02:19:23;14.97;;;10.97;;
65461;SDS011;53236;43.666;18.444;2023-05-07T02:21:49;11.80;;;10.60;;
65461;SDS011;53236;43.666;18.444;2023-05-07T02:24:15;12.97;;;11.53;;
65461;SDS011;53236;43.666;18.444;2023-05-07T02:26:41;14.33;;;10.57;;
65461;SDS011;53236;43.666;18.444;2023-05-07T02:29:06;15.13;;;10.93;;
65461;SDS011;53236;43.666;18.444;2023-05-07T02:31:32;14.93;;;11.33;;
65461;SDS011;53236;43.666;18.444;2023-05-07T02:33:59;13.00;;;9.90;;
65461;SDS011;53236;43.666;18.444;2023-05-07T02:36:25;13.83;;;11.53;;
65461;SDS011;53236;43.666;18.444;2023-05-07T02:38:54;12.87;;;9.97;;
65461;SDS011;53236;43.666;18.444;2023-05-07T02:41:19;11.93;;;9.60;;
65461;SDS011;53236;43.666;18.444;2023-05-07T02:43:45;14.47;;;10.97;;
65461;SDS011;53236;43.666;18.444;2023-05-07T02:46:11;15.10;;;12.17;;
65461;SDS011;53236;43.666;18.444;2023-05-07T02:48:37;12.03;;;10.07;;
65461;SDS011;53236;43.666;18.444;2023-05-07T02:51:03;13.53;;;9.47;;
65461;SDS011;53236;43.666;18.444;2023-05-07T02:53:30;11.73;;;10.03;;
65461;SDS011;53236;43.666;18.444;2023-05-07T02:55:57;13.43;;;10.17;;
65461;SDS011;53236;43.666;18.444;2023-05-07T02:58:23;13.50;;;10.80;;
65461;SDS011;53236;43.666;18.444;2023-05-07T03:00:49;13.40;;;11.73;;
65461;SDS011;53236;43.666;18.444;2023-05-07T03:03:15;13.13;;;10.43;;
65461;SDS011;53236;43.666;18.444;2023-05-07T03:05:42;13.33;;;10.43;;
65461;SDS011;53236;43.666;18.444;2023-05-07T03:08:08;11.93;;;9.77;;
65461;SDS011;53236;43.666;18.444;2023-05-07T03:10:34;12.73;;;10.03;;
65461;SDS011;53236;43.666;18.444;2023-05-07T03:13:00;12.10;;;9.47;;
65461;SDS011;53236;43.666;18.444;2023-05-07T03:15:26;13.20;;;9.20;;
65461;SDS011;53236;43.666;18.444;2023-05-07T03:17:52;13.97;;;9.60;;
65461;SDS011;53236;43.666;18.444;2023-05-07T03:20:18;12.77;;;10.17;;
65461;SDS011;53236;43.666;18.444;2023-05-07T03:22:44;13.30;;;9.57;;
65461;SDS011;53236;43.666;18.444;2023-05-07T03:25:09;12.73;;;9.80;;
65461;SDS011;53236;43.666;18.444;2023-05-07T03:27:35;14.70;;;10.07;;
65461;SDS011;53236;43.666;18.444;2023-05-07T03:30:02;12.20;;;9.53;;
65461;SDS011;53236;43.666;18.444;2023-05-07T03:32:29;13.20;;;9.80;;
65461;SDS011;53236;43.666;18.444;2023-05-07T03:34:55;11.37;;;10.00;;
65461;SDS011;53236;43.666;18.444;2023-05-07T03:37:21;11.80;;;9.37;;
65461;SDS011;53236;43.666;18.444;2023-05-07T03:39:47;13.83;;;9.73;;
65461;SDS011;53236;43.666;18.444;2023-05-07T03:42:13;12.50;;;9.83;;
65461;SDS011;53236;43.666;18.444;2023-05-07T03:44:39;13.33;;;10.37;;
65461;SDS011;53236;43.666;18.444;2023-05-07T03:47:05;12.00;;;9.60;;
65461;SDS011;53236;43.666;18.444;2023-05-07T03:49:31;17.07;;;14.07;;
65461;SDS011;53236;43.666;18.444;2023-05-07T03:51:57;19.43;;;15.17;;
65461;SDS011;53236;43.666;18.444;2023-05-07T03:54:22;17.30;;;13.93;;
65461;SDS011;53236;43.666;18.444;2023-05-07T03:56:48;15.70;;;12.20;;
65461;SDS011;53236;43.666;18.444;2023-05-07T03:59:14;12.37;;;11.07;;
65461;SDS011;53236;43.666;18.444;2023-05-07T04:01:39;15.23;;;11.17;;
65461;SDS011;53236;43.666;18.444;2023-05-07T04:04:05;14.37;;;10.43;;
65461;SDS011;53236;43.666;18.444;2023-05-07T04:06:31;14.93;;;10.90;;
65461;SDS011;53236;43.666;18.444;2023-05-07T04:08:57;14.53;;;10.13;;
65461;SDS011;53236;43.666;18.444;2023-05-07T04:11:23;12.17;;;9.23;;
65461;SDS011;53236;43.666;18.444;2023-05-07T04:13:49;11.43;;;9.53;;
65461;SDS011;53236;43.666;18.444;2023-05-07T04:16:14;13.10;;;9.50;;
65461;SDS011;53236;43.666;18.444;2023-05-07T04:18:40;13.13;;;10.50;;
65461;SDS011;53236;43.666;18.444;2023-05-07T04:21:13;14.00;;;10.00;;
65461;SDS011;53236;43.666;18.444;2023-05-07T04:26:08;13.98;;;9.05;;
65461;SDS011;53236;43.666;18.444;2023-05-07T04:28:34;15.00;;;8.87;;
65461;SDS011;53236;43.666;18.444;2023-05-07T04:31:00;11.30;;;10.10;;
65461;SDS011;53236;43.666;18.444;2023-05-07T04:33:26;12.53;;;11.33;;
65461;SDS011;53236;43.666;18.444;2023-05-07T04:35:51;11.60;;;9.20;;
65461;SDS011;53236;43.666;18.444;2023-05-07T04:38:17;9.67;;;8.40;;
65461;SDS011;53236;43.666;18.444;2023-05-07T04:40:43;10.07;;;7.43;;
65461;SDS011;53236;43.666;18.444;2023-05-07T04:43:10;8.90;;;6.87;;
65461;SDS011;53236;43.666;18.444;2023-05-07T04:45:36;8.90;;;7.37;;
65461;SDS011;53236;43.666;18.444;2023-05-07T04:48:01;9.40;;;6.33;;
65461;SDS011;53236;43.666;18.444;2023-05-07T04:50:27;7.90;;;5.37;;
65461;SDS011;53236;43.666;18.444;2023-05-07T04:52:53;9.50;;;5.80;;
65461;SDS011;53236;43.666;18.444;2023-05-07T04:55:19;6.73;;;4.80;;
65461;SDS011;53236;43.666;18.444;2023-05-07T04:57:45;7.37;;;4.90;;
65461;SDS011;53236;43.666;18.444;2023-05-07T05:00:11;5.53;;;4.50;;
65461;SDS011;53236;43.666;18.444;2023-05-07T05:02:39;6.45;;;4.68;;
65461;SDS011;53236;43.666;18.444;2023-05-07T05:05:06;7.72;;;4.53;;
65461;SDS011;53236;43.666;18.444;2023-05-07T05:07:32;5.70;;;4.13;;
65461;SDS011;53236;43.666;18.444;2023-05-07T05:09:58;6.15;;;4.15;;
65461;SDS011;53236;43.666;18.444;2023-05-07T05:12:24;6.40;;;4.45;;
65461;SDS011;53236;43.666;18.444;2023-05-07T05:14:50;6.30;;;4.90;;
65461;SDS011;53236;43.666;18.444;2023-05-07T05:17:16;13.40;;;4.45;;
65461;SDS011;53236;43.666;18.444;2023-05-07T05:19:41;9.52;;;5.45;;
65461;SDS011;53236;43.666;18.444;2023-05-07T05:22:07;5.88;;;3.80;;
65461;SDS011;53236;43.666;18.444;2023-05-07T05:24:33;5.90;;;3.60;;
65461;SDS011;53236;43.666;18.444;2023-05-07T05:26:59;6.13;;;3.67;;
65461;SDS011;53236;43.666;18.444;2023-05-07T05:29:27;5.72;;;3.67;;
65461;SDS011;53236;43.666;18.444;2023-05-07T05:31:53;4.45;;;3.88;;
65461;SDS011;53236;43.666;18.444;2023-05-07T05:34:19;8.82;;;4.22;;
65461;SDS011;53236;43.666;18.444;2023-05-07T05:36:45;6.18;;;4.20;;
65461;SDS011;53236;43.666;18.444;2023-05-07T05:39:11;7.43;;;4.70;;
65461;SDS011;53236;43.666;18.444;2023-05-07T05:41:37;10.10;;;6.70;;
65461;SDS011;53236;43.666;18.444;2023-05-07T05:44:03;12.38;;;9.82;;
65461;SDS011;53236;43.666;18.444;2023-05-07T05:46:29;8.60;;;6.18;;
65461;SDS011;53236;43.666;18.444;2023-05-07T05:48:55;8.25;;;6.57;;
65461;SDS011;53236;43.666;18.444;2023-05-07T05:51:21;7.45;;;5.80;;
65461;SDS011;53236;43.666;18.444;2023-05-07T05:53:48;5.13;;;3.90;;
65461;SDS011;53236;43.666;18.444;2023-05-07T05:56:14;4.78;;;3.80;;
65461;SDS011;53236;43.666;18.444;2023-05-07T05:58:40;4.97;;;3.90;;
65461;SDS011;53236;43.666;18.444;2023-05-07T06:01:06;5.85;;;3.97;;
65461;SDS011;53236;43.666;18.444;2023-05-07T06:03:32;6.07;;;4.00;;
65461;SDS011;53236;43.666;18.444;2023-05-07T06:05:58;7.57;;;4.40;;
65461;SDS011;53236;43.666;18.444;2023-05-07T06:08:25;4.05;;;3.47;;
65461;SDS011;53236;43.666;18.444;2023-05-07T06:10:53;5.93;;;3.60;;
65461;SDS011;53236;43.666;18.444;2023-05-07T06:13:19;4.97;;;3.05;;
65461;SDS011;53236;43.666;18.444;2023-05-07T06:15:45;3.63;;;3.00;;
65461;SDS011;53236;43.666;18.444;2023-05-07T06:18:11;4.53;;;3.17;;
65461;SDS011;53236;43.666;18.444;2023-05-07T06:20:37;6.90;;;3.60;;
65461;SDS011;53236;43.666;18.444;2023-05-07T06:23:02;5.53;;;3.20;;
65461;SDS011;53236;43.666;18.444;2023-05-07T06:25:28;4.60;;;3.47;;
65461;SDS011;53236;43.666;18.444;2023-05-07T06:27:54;3.85;;;2.83;;
65461;SDS011;53236;43.666;18.444;2023-05-07T06:30:20;8.45;;;4.18;;
65461;SDS011;53236;43.666;18.444;2023-05-07T06:32:45;4.97;;;4.10;;
65461;SDS011;53236;43.666;18.444;2023-05-07T06:35:11;5.57;;;3.30;;
65461;SDS011;53236;43.666;18.444;2023-05-07T06:37:37;5.60;;;3.20;;
65461;SDS011;53236;43.666;18.444;2023-05-07T06:40:05;4.63;;;3.50;;
65461;SDS011;53236;43.666;18.444;2023-05-07T06:42:32;3.67;;;3.25;;
65461;SDS011;53236;43.666;18.444;2023-05-07T06:44:57;5.63;;;2.88;;
65461;SDS011;53236;43.666;18.444;2023-05-07T06:47:23;4.78;;;3.33;;
65461;SDS011;53236;43.666;18.444;2023-05-07T06:49:49;5.35;;;3.05;;
65461;SDS011;53236;43.666;18.444;2023-05-07T06:52:15;5.90;;;3.20;;
65461;SDS011;53236;43.666;18.444;2023-05-07T06:54:40;4.38;;;3.60;;
65461;SDS011;53236;43.666;18.444;2023-05-07T06:57:06;3.97;;;2.78;;
65461;SDS011;53236;43.666;18.444;2023-05-07T06:59:32;4.68;;;2.85;;
65461;SDS011;53236;43.666;18.444;2023-05-07T07:01:58;5.30;;;2.90;;
65461;SDS011;53236;43.666;18.444;2023-05-07T07:04:24;3.50;;;2.75;;
65461;SDS011;53236;43.666;18.444;2023-05-07T07:06:51;3.30;;;2.80;;
65461;SDS011;53236;43.666;18.444;2023-05-07T07:09:18;4.22;;;2.60;;
65461;SDS011;53236;43.666;18.444;2023-05-07T07:11:44;3.22;;;2.67;;
65461;SDS011;53236;43.666;18.444;2023-05-07T07:14:10;3.88;;;2.83;;
65461;SDS011;53236;43.666;18.444;2023-05-07T07:16:36;4.85;;;2.92;;
65461;SDS011;53236;43.666;18.444;2023-05-07T07:19:01;6.13;;;3.10;;
65461;SDS011;53236;43.666;18.444;2023-05-07T07:21:27;4.18;;;2.60;;
65461;SDS011;53236;43.666;18.444;2023-05-07T07:23:53;4.13;;;2.90;;
65461;SDS011;53236;43.666;18.444;2023-05-07T07:26:19;4.72;;;2.60;;
65461;SDS011;53236;43.666;18.444;2023-05-07T07:28:45;3.20;;;2.67;;
65461;SDS011;53236;43.666;18.444;2023-05-07T07:31:11;3.22;;;2.38;;
65461;SDS011;53236;43.666;18.444;2023-05-07T07:33:37;6.60;;;2.70;;
65461;SDS011;53236;43.666;18.444;2023-05-07T07:36:04;3.58;;;2.67;;
65461;SDS011;53236;43.666;18.444;2023-05-07T07:38:31;5.28;;;2.88;;
65461;SDS011;53236;43.666;18.444;2023-05-07T07:40:57;3.25;;;2.40;;
65461;SDS011;53236;43.666;18.444;2023-05-07T07:43:22;2.85;;;2.28;;
65461;SDS011;53236;43.666;18.444;2023-05-07T07:45:48;3.72;;;2.35;;
65461;SDS011;53236;43.666;18.444;2023-05-07T07:48:14;5.90;;;2.50;;
65461;SDS011;53236;43.666;18.444;2023-05-07T07:50:40;7.18;;;2.90;;
65461;SDS011;53236;43.666;18.444;2023-05-07T07:53:06;3.97;;;2.20;;
65461;SDS011;53236;43.666;18.444;2023-05-07T07:55:31;4.05;;;2.30;;
65461;SDS011;53236;43.666;18.444;2023-05-07T07:57:57;3.70;;;2.25;;
65461;SDS011;53236;43.666;18.444;2023-05-07T08:00:23;3.58;;;2.15;;
65461;SDS011;53236;43.666;18.444;2023-05-07T08:02:49;3.42;;;2.17;;
65461;SDS011;53236;43.666;18.444;2023-05-07T08:05:15;2.95;;;2.13;;
65461;SDS011;53236;43.666;18.444;2023-05-07T08:07:40;3.97;;;2.30;;
65461;SDS011;53236;43.666;18.444;2023-05-07T08:10:06;5.07;;;2.30;;
65461;SDS011;53236;43.666;18.444;2023-05-07T08:12:32;3.13;;;2.40;;
65461;SDS011;53236;43.666;18.444;2023-05-07T08:14:58;7.10;;;2.65;;
65461;SDS011;53236;43.666;18.444;2023-05-07T08:17:24;3.53;;;2.15;;
65461;SDS011;53236;43.666;18.444;2023-05-07T08:19:50;3.25;;;2.22;;
65461;SDS011;53236;43.666;18.444;2023-05-07T08:22:15;8.85;;;2.70;;
65461;SDS011;53236;43.666;18.444;2023-05-07T08:24:43;4.72;;;2.58;;
65461;SDS011;53236;43.666;18.444;2023-05-07T08:27:09;3.80;;;2.55;;
65461;SDS011;53236;43.666;18.444;2023-05-07T08:29:35;5.00;;;2.90;;
65461;SDS011;53236;43.666;18.444;2023-05-07T08:32:01;6.20;;;2.72;;
65461;SDS011;53236;43.666;18.444;2023-05-07T08:34:27;5.00;;;2.92;;
65461;SDS011;53236;43.666;18.444;2023-05-07T08:36:53;6.90;;;3.05;;
65461;SDS011;53236;43.666;18.444;2023-05-07T08:39:18;5.05;;;2.75;;
65461;SDS011;53236;43.666;18.444;2023-05-07T08:41:44;4.75;;;3.15;;
65461;SDS011;53236;43.666;18.444;2023-05-07T08:44:12;7.05;;;2.90;;
65461;SDS011;53236;43.666;18.444;2023-05-07T08:46:41;5.05;;;3.38;;
65461;SDS011;53236;43.666;18.444;2023-05-07T08:49:08;5.28;;;3.28;;
65461;SDS011;53236;43.666;18.444;2023-05-07T08:51:34;4.28;;;3.20;;
65461;SDS011;53236;43.666;18.444;2023-05-07T08:54:01;5.70;;;3.20;;
65461;SDS011;53236;43.666;18.444;2023-05-07T08:56:27;7.07;;;3.63;;
65461;SDS011;53236;43.666;18.444;2023-05-07T08:58:52;5.70;;;3.42;;
65461;SDS011;53236;43.666;18.444;2023-05-07T09:01:23;5.57;;;3.92;;
65461;SDS011;53236;43.666;18.444;2023-05-07T09:03:50;14.00;;;4.05;;
65461;SDS011;53236;43.666;18.444;2023-05-07T09:06:18;6.70;;;3.80;;
65461;SDS011;53236;43.666;18.444;2023-05-07T09:08:53;5.68;;;3.58;;
65461;SDS011;53236;43.666;18.444;2023-05-07T09:11:23;5.38;;;3.97;;
65461;SDS011;53236;43.666;18.444;2023-05-07T09:13:56;6.18;;;3.60;;
65461;SDS011;53236;43.666;18.444;2023-05-07T09:16:28;8.20;;;3.40;;
65461;SDS011;53236;43.666;18.444;2023-05-07T09:18:57;8.32;;;3.75;;
65461;SDS011;53236;43.666;18.444;2023-05-07T09:21:23;5.20;;;3.58;;
65461;SDS011;53236;43.666;18.444;2023-05-07T09:23:53;7.38;;;3.30;;
65461;SDS011;53236;43.666;18.444;2023-05-07T09:26:23;4.55;;;3.20;;
65461;SDS011;53236;43.666;18.444;2023-05-07T09:28:50;4.30;;;3.35;;
65461;SDS011;53236;43.666;18.444;2023-05-07T09:31:16;6.72;;;3.38;;
65461;SDS011;53236;43.666;18.444;2023-05-07T09:33:41;6.07;;;3.50;;
65461;SDS011;53236;43.666;18.444;2023-05-07T09:36:08;5.97;;;3.22;;
65461;SDS011;53236;43.666;18.444;2023-05-07T09:38:35;4.15;;;2.72;;
65461;SDS011;53236;43.666;18.444;2023-05-07T09:41:03;4.03;;;2.35;;
65461;SDS011;53236;43.666;18.444;2023-05-07T09:43:34;5.50;;;2.75;;
65461;SDS011;53236;43.666;18.444;2023-05-07T09:46:02;8.75;;;2.90;;
65461;SDS011;53236;43.666;18.444;2023-05-07T09:48:31;7.75;;;2.72;;
65461;SDS011;53236;43.666;18.444;2023-05-07T09:51:02;3.90;;;2.22;;
65461;SDS011;53236;43.666;18.444;2023-05-07T09:53:31;2.95;;;2.03;;
65461;SDS011;53236;43.666;18.444;2023-05-07T09:55:58;5.30;;;2.35;;
65461;SDS011;53236;43.666;18.444;2023-05-07T09:58:25;3.03;;;1.77;;
65461;SDS011;53236;43.666;18.444;2023-05-07T10:00:52;3.20;;;1.50;;
65461;SDS011;53236;43.666;18.444;2023-05-07T10:03:18;6.68;;;1.88;;
65461;SDS011;53236;43.666;18.444;2023-05-07T10:05:46;5.40;;;2.00;;
65461;SDS011;53236;43.666;18.444;2023-05-07T10:08:12;2.90;;;1.80;;
65461;SDS011;53236;43.666;18.444;2023-05-07T10:10:41;2.95;;;1.30;;
65461;SDS011;53236;43.666;18.444;2023-05-07T10:13:07;2.60;;;1.60;;
65461;SDS011;53236;43.666;18.444;2023-05-07T10:15:36;2.15;;;1.25;;
65461;SDS011;53236;43.666;18.444;2023-05-07T10:18:02;3.30;;;1.17;;
65461;SDS011;53236;43.666;18.444;2023-05-07T10:20:29;1.60;;;1.00;;
65461;SDS011;53236;43.666;18.444;2023-05-07T10:22:56;2.95;;;1.02;;
65461;SDS011;53236;43.666;18.444;2023-05-07T10:25:28;4.07;;;1.83;;
65461;SDS011;53236;43.666;18.444;2023-05-07T10:27:56;2.83;;;1.42;;
65461;SDS011;53236;43.666;18.444;2023-05-07T10:33:28;3.67;;;1.52;;
65461;SDS011;53236;43.666;18.444;2023-05-07T10:35:59;2.78;;;1.30;;
65461;SDS011;53236;43.666;18.444;2023-05-07T10:38:29;2.17;;;1.40;;
65461;SDS011;53236;43.666;18.444;2023-05-07T10:40:55;5.38;;;1.33;;
65461;SDS011;53236;43.666;18.444;2023-05-07T10:43:21;2.13;;;1.02;;
65461;SDS011;53236;43.666;18.444;2023-05-07T10:51:26;2.58;;;1.30;;
65461;SDS011;53236;43.666;18.444;2023-05-07T10:56:37;1.80;;;1.13;;
65461;SDS011;53236;43.666;18.444;2023-05-07T10:59:49;2.17;;;1.42;;
65461;SDS011;53236;43.666;18.444;2023-05-07T11:01:57;3.22;;;1.35;;
65461;SDS011;53236;43.666;18.444;2023-05-07T11:04:31;2.83;;;1.30;;
65461;SDS011;53236;43.666;18.444;2023-05-07T11:15:04;3.60;;;1.57;;
65461;SDS011;53236;43.666;18.444;2023-05-07T11:17:31;3.85;;;1.52;;
65461;SDS011;53236;43.666;18.444;2023-05-07T11:19:59;3.83;;;1.50;;
65461;SDS011;53236;43.666;18.444;2023-05-07T11:25:05;4.28;;;1.80;;
65461;SDS011;53236;43.666;18.444;2023-05-07T11:27:32;3.60;;;1.50;;
65461;SDS011;53236;43.666;18.444;2023-05-07T11:30:01;3.17;;;1.77;;
65461;SDS011;53236;43.666;18.444;2023-05-07T11:32:28;2.92;;;1.70;;
65461;SDS011;53236;43.666;18.444;2023-05-07T11:34:56;2.97;;;1.50;;
65461;SDS011;53236;43.666;18.444;2023-05-07T11:37:23;6.13;;;1.92;;
65461;SDS011;53236;43.666;18.444;2023-05-07T11:39:50;6.13;;;2.00;;
65461;SDS011;53236;43.666;18.444;2023-05-07T11:42:30;5.57;;;2.67;;
65461;SDS011;53236;43.666;18.444;2023-05-07T11:44:57;4.73;;;1.80;;
65461;SDS011;53236;43.666;18.444;2023-05-07T11:47:24;3.65;;;1.70;;
65461;SDS011;53236;43.666;18.444;2023-05-07T11:49:53;3.40;;;1.67;;
65461;SDS011;53236;43.666;18.444;2023-05-07T11:52:20;2.63;;;1.67;;
65461;SDS011;53236;43.666;18.444;2023-05-07T11:54:53;4.32;;;1.33;;
65461;SDS011;53236;43.666;18.444;2023-05-07T11:57:20;4.40;;;1.20;;
65461;SDS011;53236;43.666;18.444;2023-05-07T11:59:47;2.83;;;1.40;;
65461;SDS011;53236;43.666;18.444;2023-05-07T12:02:15;2.28;;;1.17;;
65461;SDS011;53236;43.666;18.444;2023-05-07T12:04:41;2.05;;;1.10;;
65461;SDS011;53236;43.666;18.444;2023-05-07T12:07:16;3.30;;;1.40;;
65461;SDS011;53236;43.666;18.444;2023-05-07T12:09:43;2.28;;;1.25;;
65461;SDS011;53236;43.666;18.444;2023-05-07T12:12:10;8.93;;;1.20;;
65461;SDS011;53236;43.666;18.444;2023-05-07T12:14:41;3.40;;;1.42;;
65461;SDS011;53236;43.666;18.444;2023-05-07T12:17:07;2.58;;;1.77;;
65461;SDS011;53236;43.666;18.444;2023-05-07T12:19:35;4.13;;;1.73;;
65461;SDS011;53236;43.666;18.444;2023-05-07T12:22:05;4.85;;;1.77;;
65461;SDS011;53236;43.666;18.444;2023-05-07T12:24:48;2.97;;;1.73;;
65461;SDS011;53236;43.666;18.444;2023-05-07T12:27:21;2.95;;;1.58;;
65461;SDS011;53236;43.666;18.444;2023-05-07T12:29:47;3.42;;;1.70;;
65461;SDS011;53236;43.666;18.444;2023-05-07T12:32:17;2.88;;;1.52;;
65461;SDS011;53236;43.666;18.444;2023-05-07T12:34:44;2.90;;;1.50;;
65461;SDS011;53236;43.666;18.444;2023-05-07T12:37:11;2.65;;;1.48;;
65461;SDS011;53236;43.666;18.444;2023-05-07T12:39:37;3.60;;;2.13;;
65461;SDS011;53236;43.666;18.444;2023-05-07T12:42:08;4.05;;;1.58;;
65461;SDS011;53236;43.666;18.444;2023-05-07T12:44:41;3.42;;;2.00;;
65461;SDS011;53236;43.666;18.444;2023-05-07T12:47:11;3.30;;;2.10;;
65461;SDS011;53236;43.666;18.444;2023-05-07T12:49:38;2.78;;;1.70;;
65461;SDS011;53236;43.666;18.444;2023-05-07T12:52:05;4.43;;;2.65;;
65461;SDS011;53236;43.666;18.444;2023-05-07T12:54:34;5.88;;;2.45;;
65461;SDS011;53236;43.666;18.444;2023-05-07T12:57:03;3.05;;;1.38;;
65461;SDS011;53236;43.666;18.444;2023-05-07T12:59:36;3.95;;;1.67;;
65461;SDS011;53236;43.666;18.444;2023-05-07T13:02:05;2.72;;;1.63;;
65461;SDS011;53236;43.666;18.444;2023-05-07T13:04:31;2.88;;;1.70;;
65461;SDS011;53236;43.666;18.444;2023-05-07T13:06:57;2.92;;;1.50;;
65461;SDS011;53236;43.666;18.444;2023-05-07T13:09:23;2.72;;;1.40;;
65461;SDS011;53236;43.666;18.444;2023-05-07T13:11:49;3.15;;;1.83;;
65461;SDS011;53236;43.666;18.444;2023-05-07T13:14:15;4.35;;;1.70;;
65461;SDS011;53236;43.666;18.444;2023-05-07T13:16:41;3.83;;;1.95;;
65461;SDS011;53236;43.666;18.444;2023-05-07T13:19:07;4.38;;;1.80;;
65461;SDS011;53236;43.666;18.444;2023-05-07T13:21:32;4.13;;;2.05;;
65461;SDS011;53236;43.666;18.444;2023-05-07T13:23:58;5.68;;;2.97;;
65461;SDS011;53236;43.666;18.444;2023-05-07T13:26:24;3.13;;;1.85;;
65461;SDS011;53236;43.666;18.444;2023-05-07T13:28:51;7.82;;;4.15;;
65461;SDS011;53236;43.666;18.444;2023-05-07T13:31:20;8.70;;;4.35;;
65461;SDS011;53236;43.666;18.444;2023-05-07T13:33:46;3.40;;;2.25;;
65461;SDS011;53236;43.666;18.444;2023-05-07T13:36:12;4.75;;;1.83;;
65461;SDS011;53236;43.666;18.444;2023-05-07T13:38:38;2.92;;;1.70;;
65461;SDS011;53236;43.666;18.444;2023-05-07T13:41:05;5.93;;;1.88;;
65461;SDS011;53236;43.666;18.444;2023-05-07T13:43:30;7.78;;;2.83;;
65461;SDS011;53236;43.666;18.444;2023-05-07T13:45:58;3.50;;;1.70;;
65461;SDS011;53236;43.666;18.444;2023-05-07T13:48:24;6.28;;;3.95;;
65461;SDS011;53236;43.666;18.444;2023-05-07T13:50:50;4.72;;;2.00;;
65461;SDS011;53236;43.666;18.444;2023-05-07T13:53:16;4.25;;;2.20;;
65461;SDS011;53236;43.666;18.444;2023-05-07T13:55:43;3.60;;;1.90;;
65461;SDS011;53236;43.666;18.444;2023-05-07T13:58:09;3.97;;;2.22;;
65461;SDS011;53236;43.666;18.444;2023-05-07T14:00:36;2.28;;;1.77;;
65461;SDS011;53236;43.666;18.444;2023-05-07T14:03:01;9.73;;;2.25;;
65461;SDS011;53236;43.666;18.444;2023-05-07T14:05:29;3.30;;;1.70;;
65461;SDS011;53236;43.666;18.444;2023-05-07T14:07:56;5.85;;;1.92;;
65461;SDS011;53236;43.666;18.444;2023-05-07T14:10:23;3.00;;;1.70;;
65461;SDS011;53236;43.666;18.444;2023-05-07T14:12:49;6.03;;;1.63;;
65461;SDS011;53236;43.666;18.444;2023-05-07T14:15:15;7.25;;;1.48;;
65461;SDS011;53236;43.666;18.444;2023-05-07T14:17:41;6.38;;;1.95;;
65461;SDS011;53236;43.666;18.444;2023-05-07T14:20:08;4.13;;;1.67;;
65461;SDS011;53236;43.666;18.444;2023-05-07T14:22:34;8.25;;;2.53;;
65461;SDS011;53236;43.666;18.444;2023-05-07T14:25:00;7.00;;;1.70;;
65461;SDS011;53236;43.666;18.444;2023-05-07T14:27:26;4.68;;;1.95;;
65461;SDS011;53236;43.666;18.444;2023-05-07T14:29:52;3.20;;;1.48;;
65461;SDS011;53236;43.666;18.444;2023-05-07T14:32:17;7.30;;;1.75;;
65461;SDS011;53236;43.666;18.444;2023-05-07T14:34:44;4.97;;;1.65;;
65461;SDS011;53236;43.666;18.444;2023-05-07T14:37:10;3.72;;;1.77;;
65461;SDS011;53236;43.666;18.444;2023-05-07T14:39:36;3.30;;;1.80;;
65461;SDS011;53236;43.666;18.444;2023-05-07T14:42:01;3.83;;;1.88;;
65461;SDS011;53236;43.666;18.444;2023-05-07T14:44:27;2.40;;;1.50;;
65461;SDS011;53236;43.666;18.444;2023-05-07T14:46:53;3.25;;;1.60;;